createdAt,value
2018-09-14T00:03:55.772Z,100599.48
2018-09-14T00:08:59.051Z,100599.31
2018-09-14T00:14:02.333Z,100595.12
2018-09-14T00:19:05.898Z,100603.31
2018-09-14T00:24:09.170Z,100590.59
2018-09-14T00:29:12.450Z,100584.05
2018-09-14T00:34:15.731Z,100579.69
2018-09-14T00:39:19.033Z,100585.02
2018-09-14T00:44:22.434Z,100584.33
2018-09-14T00:49:25.714Z,100583.36
2018-09-14T00:54:29.035Z,100577.61
2018-09-14T00:59:32.311Z,100573.17
2018-09-14T01:04:35.593Z,100582.47
2018-09-14T01:09:38.875Z,100575.61
2018-09-14T01:14:42.158Z,100567.67
2018-09-14T01:19:45.443Z,100578.22
2018-09-14T01:24:48.734Z,100572.10
2018-09-14T01:29:52.014Z,100580.83
2018-09-14T01:34:55.307Z,100579.86
2018-09-14T01:39:58.581Z,100584.22
2018-09-14T01:45:01.883Z,100582.39
2018-09-14T01:50:06.474Z,100573.34
2018-09-14T01:55:09.775Z,100567.59
2018-09-14T02:00:13.053Z,100574.89
2018-09-14T02:05:16.327Z,100572.28
2018-09-14T02:10:23.163Z,100568.20
2018-09-14T02:15:26.470Z,100567.23
2018-09-14T02:20:29.786Z,100568.63
2018-09-14T02:25:33.129Z,100563.66
2018-09-14T02:30:36.445Z,100557.30
2018-09-14T02:35:39.774Z,100559.13
2018-09-14T02:40:43.095Z,100561.58
2018-09-14T02:45:46.406Z,100558.97
2018-09-14T02:50:49.715Z,100563.77
2018-09-14T02:55:53.018Z,100564.37
2018-09-14T03:00:56.314Z,100562.80
2018-09-14T03:05:59.619Z,100562.62
2018-09-14T03:11:02.946Z,100568.55
2018-09-14T03:16:06.247Z,100571.58
2018-09-14T03:21:09.555Z,100568.98
2018-09-14T03:26:13.028Z,100570.38
2018-09-14T03:31:16.358Z,100570.19
2018-09-14T03:36:19.672Z,100571.58
2018-09-14T03:41:23.154Z,100580.01
2018-09-14T03:46:26.447Z,100582.55
2018-09-14T03:51:29.750Z,100580.01
2018-09-14T03:56:33.046Z,100576.89
2018-09-14T04:01:36.362Z,100566.53
2018-09-14T04:06:39.677Z,100573.32
2018-09-14T04:11:43.035Z,100578.72
2018-09-14T04:16:46.343Z,100575.93
2018-09-14T04:21:49.647Z,100575.57
2018-09-14T04:26:52.957Z,100580.45
2018-09-14T04:31:56.254Z,100577.84
2018-09-14T04:36:59.546Z,100587.92
2018-09-14T04:42:02.842Z,100581.48
2018-09-14T04:47:06.373Z,100578.52
2018-09-14T04:52:09.709Z,100588.06
2018-09-14T04:57:13.057Z,100591.91
2018-09-14T05:02:16.370Z,100594.84
2018-09-14T05:07:19.641Z,100597.63
2018-09-14T05:12:22.940Z,100601.48
2018-09-14T05:17:26.252Z,100599.72
2018-09-14T05:22:29.526Z,100600.58
2018-09-14T05:27:32.815Z,100602.93
2018-09-14T05:32:36.100Z,100602.33
2018-09-14T05:37:39.394Z,100609.11
2018-09-14T05:42:42.669Z,100614.95
2018-09-14T05:47:45.972Z,100611.38
2018-09-14T05:52:49.247Z,100617.29
2018-09-14T05:57:52.576Z,100616.17
2018-09-14T06:02:55.926Z,100618.68
2018-09-14T06:07:59.170Z,100623.92
2018-09-14T06:13:02.486Z,100637.48
2018-09-14T06:18:05.766Z,100641.06
2018-09-14T06:23:09.174Z,100645.48
2018-09-14T06:28:12.382Z,100645.38
2018-09-14T06:33:15.677Z,100647.92
2018-09-14T06:38:19.025Z,100644.88
2018-09-14T06:43:22.348Z,100649.66
2018-09-14T06:48:26.419Z,100652.89
2018-09-14T06:53:29.752Z,100651.31
2018-09-14T06:58:33.063Z,100649.32
2018-09-14T07:03:36.378Z,100649.48
2018-09-14T07:08:39.690Z,100658.39
2018-09-14T07:13:43.027Z,100660.80
2018-09-14T07:18:46.618Z,100668.12
2018-09-14T07:23:49.921Z,100668.24
2018-09-14T07:28:53.277Z,100668.31
2018-09-14T07:33:56.584Z,100673.22
2018-09-14T07:38:59.894Z,100675.03
2018-09-14T07:44:03.195Z,100683.92
2018-09-14T07:49:06.618Z,100686.30
2018-09-14T07:54:09.931Z,100689.01
2018-09-14T07:59:13.254Z,100691.05
2018-09-14T08:04:16.558Z,100701.03
2018-09-14T08:09:19.899Z,100702.11
2018-09-14T08:14:23.214Z,100706.19
2018-09-14T08:19:26.523Z,100709.63
2018-09-14T08:24:29.826Z,100709.03
2018-09-14T08:29:33.137Z,100707.67
2018-09-14T08:34:36.450Z,100711.44
2018-09-14T08:39:39.749Z,100716.17
2018-09-14T08:44:43.059Z,100722.86
2018-09-14T08:49:46.366Z,100723.98
2018-09-14T08:54:49.683Z,100731.25
2018-09-14T08:59:52.997Z,100725.80
2018-09-14T09:04:56.312Z,100722.13
2018-09-14T09:09:59.632Z,100723.03
2018-09-14T09:15:03.044Z,100724.39
2018-09-14T09:20:06.595Z,100721.25
2018-09-14T09:25:09.907Z,100717.08
2018-09-14T09:30:13.215Z,100710.83
2018-09-14T09:35:16.514Z,100696.61
2018-09-14T09:40:19.822Z,100702.34
2018-09-14T09:45:23.126Z,100698.22
2018-09-14T09:50:26.451Z,100693.33
2018-09-14T09:55:29.758Z,100690.84
2018-09-14T10:00:38.494Z,100687.95
2018-09-14T10:05:47.110Z,100687.23
2018-09-14T10:10:50.540Z,100687.19
2018-09-14T10:15:53.903Z,100694.44
2018-09-14T10:20:57.233Z,100688.80
2018-09-14T10:26:00.514Z,100689.11
2018-09-14T10:31:03.858Z,100688.58
2018-09-14T10:36:07.158Z,100697.41
2018-09-14T10:41:10.438Z,100696.73
2018-09-14T10:46:13.719Z,100688.72
2018-09-14T10:51:17.023Z,100682.89
2018-09-14T10:56:20.395Z,100684.56
2018-09-14T11:01:23.701Z,100686.93
2018-09-14T11:06:27.180Z,100681.55
2018-09-14T11:11:30.458Z,100679.00
2018-09-14T11:16:33.810Z,100680.70
2018-09-14T11:21:37.129Z,100673.28
2018-09-14T11:26:40.550Z,100672.78
2018-09-14T11:31:43.875Z,100683.59
2018-09-14T11:36:47.165Z,100675.59
2018-09-14T11:41:50.459Z,100676.99
2018-09-14T11:46:53.803Z,100673.64
2018-09-14T11:51:57.094Z,100668.41
2018-09-14T11:57:00.379Z,100666.17
2018-09-14T12:02:03.712Z,100662.61
2018-09-14T12:07:06.998Z,100661.34
2018-09-14T12:12:10.747Z,100657.71
2018-09-14T12:17:14.120Z,100653.74
2018-09-14T12:22:17.458Z,100650.89
2018-09-14T12:27:20.809Z,100647.05
2018-09-14T12:32:24.146Z,100644.74
2018-09-14T12:37:27.477Z,100645.34
2018-09-14T12:42:30.776Z,100643.67
2018-09-14T12:47:34.053Z,100643.61
2018-09-14T12:52:37.547Z,100635.08
2018-09-14T12:57:40.914Z,100634.65
2018-09-14T13:02:44.283Z,100628.98
2018-09-14T13:07:48.301Z,100623.08
2018-09-14T13:12:51.869Z,100617.38
2018-09-14T13:17:55.316Z,100625.56
2018-09-14T13:22:59.002Z,100615.03
2018-09-14T13:28:02.440Z,100615.30
2018-09-14T13:33:05.754Z,100612.70
2018-09-14T13:38:09.068Z,100603.80
2018-09-14T13:43:12.391Z,100607.80
2018-09-14T13:48:15.891Z,100603.80
2018-09-14T13:53:19.286Z,100600.31
2018-09-14T13:58:22.647Z,100590.71
2018-09-14T14:03:25.930Z,100591.63
2018-09-14T14:08:29.218Z,100581.17
2018-09-14T14:13:32.506Z,100575.78
2018-09-14T14:18:36.815Z,100569.93
2018-09-14T14:23:40.108Z,100569.50
2018-09-14T14:28:43.582Z,100565.92
2018-09-14T14:33:46.896Z,100565.75
2018-09-14T14:38:50.186Z,100562.17
2018-09-14T14:43:54.430Z,100555.66
2018-09-14T14:48:57.731Z,100551.02
2018-09-14T14:54:01.044Z,100546.52
2018-09-14T14:59:04.599Z,100541.45
2018-09-14T15:04:08.011Z,100540.94
2018-09-14T15:09:11.615Z,100541.45
2018-09-14T15:14:14.996Z,100530.12
2018-09-14T15:19:18.430Z,100530.58
2018-09-14T15:24:21.703Z,100526.72
2018-09-14T15:29:24.986Z,100524.64
2018-09-14T15:34:28.424Z,100519.85
2018-09-14T15:39:31.714Z,100520.03
2018-09-14T15:44:35.014Z,100515.75
2018-09-14T15:49:38.314Z,100513.06
2018-09-14T15:54:41.621Z,100509.74
2018-09-14T15:59:44.975Z,100511.20
2018-09-14T16:04:48.281Z,100506.41
2018-09-14T16:09:51.597Z,100491.52
2018-09-14T16:14:54.878Z,100505.02
2018-09-14T16:19:58.187Z,100500.52
2018-09-14T16:25:01.484Z,100493.27
2018-09-14T16:30:05.337Z,100495.37
2018-09-14T16:35:08.859Z,100495.37
2018-09-14T16:40:12.142Z,100497.63
2018-09-14T16:45:15.445Z,100501.02
2018-09-14T16:50:18.746Z,100491.98
2018-09-14T16:55:22.034Z,100495.27
2018-09-14T17:00:25.331Z,100495.55
2018-09-14T17:05:28.780Z,100493.27
2018-09-14T17:10:32.098Z,100495.55
2018-09-14T17:15:35.382Z,100500.84
2018-09-14T17:20:38.691Z,100505.73
2018-09-14T17:25:41.966Z,100504.95
2018-09-14T17:30:45.274Z,100509.67
2018-09-14T17:35:48.579Z,100515.67
2018-09-14T17:40:51.870Z,100517.75
2018-09-14T17:45:55.168Z,100517.06
2018-09-14T17:50:58.451Z,100518.36
2018-09-14T17:56:01.763Z,100511.92
2018-09-14T18:01:05.067Z,100508.77
2018-09-14T18:06:08.346Z,100520.71
2018-09-14T18:11:11.726Z,100517.56
2018-09-14T18:16:15.060Z,100520.89
2018-09-14T18:21:18.419Z,100518.11
2018-09-14T18:26:21.807Z,100522.89
2018-09-14T18:31:25.119Z,100527.25
2018-09-14T18:36:28.483Z,100533.55
2018-09-14T18:41:31.818Z,100533.87
2018-09-14T18:46:35.240Z,100531.01
2018-09-14T18:51:38.530Z,100530.66
2018-09-14T18:56:41.810Z,100526.72
2018-09-14T19:01:45.123Z,100536.23
2018-09-14T19:06:48.423Z,100533.44
2018-09-14T19:11:51.793Z,100537.27
2018-09-14T19:16:55.398Z,100535.69
2018-09-14T19:21:58.690Z,100526.83
2018-09-14T19:27:01.981Z,100523.33
2018-09-14T19:32:05.262Z,100530.65
2018-09-14T19:37:08.558Z,100528.75
2018-09-14T19:42:11.833Z,100533.08
2018-09-14T19:47:15.115Z,100532.39
2018-09-14T19:52:18.638Z,100533.10
2018-09-14T19:57:21.939Z,100528.56
2018-09-14T20:02:25.271Z,100527.42
2018-09-14T20:07:28.550Z,100530.64
2018-09-14T20:12:31.837Z,100530.13
2018-09-14T20:17:35.595Z,100529.95
2018-09-14T20:22:38.979Z,100534.98
2018-09-14T20:27:42.270Z,100528.37
2018-09-14T20:32:45.578Z,100536.38
2018-09-14T20:37:48.866Z,100524.37
2018-09-14T20:42:52.159Z,100521.41
2018-09-14T20:47:55.506Z,100527.65
2018-09-14T20:52:58.819Z,100526.50
2018-09-14T20:58:02.159Z,100521.45
2018-09-14T21:03:05.518Z,100524.33
2018-09-14T21:08:08.815Z,100516.67
2018-09-14T21:13:12.134Z,100515.61
2018-09-14T21:18:15.447Z,100516.39
2018-09-14T21:23:18.757Z,100518.92
2018-09-14T21:28:22.067Z,100516.92
2018-09-14T21:33:25.405Z,100524.13
2018-09-14T21:38:28.789Z,100520.83
2018-09-14T21:43:32.098Z,100517.08
2018-09-14T21:48:35.606Z,100511.27
2018-09-14T21:53:38.958Z,100516.84
2018-09-14T21:58:42.394Z,100514.91
2018-09-14T22:03:45.703Z,100512.37
2018-09-14T22:08:49.010Z,100513.33
2018-09-14T22:13:52.737Z,100515.00
2018-09-14T22:18:56.048Z,100504.80
2018-09-14T22:23:59.349Z,100503.41
2018-09-14T22:29:02.676Z,100498.02
2018-09-14T22:34:05.986Z,100495.81
2018-09-14T22:39:10.934Z,100496.78
2018-09-14T22:44:14.287Z,100486.07
2018-09-14T22:49:17.590Z,100491.64
2018-09-14T22:54:21.214Z,100492.09
2018-09-14T22:59:24.855Z,100495.81
2018-09-14T23:04:28.179Z,100520.73
2018-09-14T23:09:31.486Z,100513.83
2018-09-14T23:14:34.785Z,100514.08
2018-09-14T23:19:38.081Z,100522.09
2018-09-14T23:24:41.389Z,100510.50
2018-09-14T23:29:44.694Z,100509.75
2018-09-14T23:34:48.050Z,100520.09
2018-09-14T23:39:51.346Z,100518.25
2018-09-14T23:44:54.695Z,100519.64
2018-09-14T23:49:57.994Z,100509.75
2018-09-14T23:55:01.290Z,100508.97
